Terminal Aerodrome Forecast
Issued by NWS Topeka, KS

Home | Current Version | Previous Version | Graphics & Text | Print | Product List | Glossary On
Versions: 1 2 3 4 5 6 7 8 9 10 11 12 13
000
FTUS43 KTOP 240500
TAFTOP
TAF
KTOP 240539Z 2406/2506 23004KT P6SM SKC
     FM241600 28010KT P6SM SCT250
     FM250000 05003KT P6SM SCT025 BKN040=

USA.gov is the U.S. government's official web portal to all federal, state and local government web resources and services.